createdAt,value
2023-05-13T00:00:38.291Z,104835.00
2023-05-13T00:03:19.185Z,104803.41
2023-05-13T00:05:56.729Z,104810.63
2023-05-13T00:08:38.135Z,104808.81
2023-05-13T00:11:19.116Z,104805.19
2023-05-13T00:14:00.503Z,104788.97
2023-05-13T00:16:30.410Z,104797.06
2023-05-13T00:18:59.872Z,104801.59
2023-05-13T00:21:30.101Z,104838.59
2023-05-13T00:24:01.149Z,104853.00
2023-05-13T00:26:45.348Z,104881.00
2023-05-13T00:29:24.434Z,104898.16
2023-05-13T00:32:05.146Z,104885.53
2023-05-13T00:34:52.967Z,104871.97
2023-05-13T00:37:30.164Z,104864.78
2023-05-13T00:40:20.759Z,104873.81
2023-05-13T00:42:55.732Z,104877.41
2023-05-13T00:45:25.043Z,104873.81
2023-05-13T00:47:54.925Z,104881.94
2023-05-13T00:50:32.362Z,104877.41
2023-05-13T00:53:14.749Z,104887.34
2023-05-13T00:55:57.282Z,104909.91
2023-05-13T00:58:41.668Z,104908.13
2023-05-13T01:01:31.500Z,104886.44
2023-05-13T01:04:18.650Z,104912.59
2023-05-13T01:07:05.285Z,104931.59
2023-05-13T01:09:57.464Z,104927.06
2023-05-13T01:12:47.366Z,104929.75
2023-05-13T01:15:33.613Z,104932.47
2023-05-13T01:18:24.356Z,104930.66
2023-05-13T01:21:07.358Z,104922.53
2023-05-13T01:23:50.888Z,104915.31
2023-05-13T01:26:32.868Z,104890.03
2023-05-13T01:29:15.483Z,104858.44
2023-05-13T01:31:52.676Z,104828.66
2023-05-13T01:34:32.801Z,104809.72
2023-05-13T01:37:16.017Z,104799.81
2023-05-13T01:40:05.816Z,104779.06
2023-05-13T01:42:45.036Z,104755.59
2023-05-13T01:45:25.954Z,104734.84
2023-05-13T01:48:04.364Z,104699.69
2023-05-13T01:50:53.385Z,104678.97
2023-05-13T01:53:31.825Z,104659.13
2023-05-13T01:56:11.567Z,104653.72
2023-05-13T01:58:48.293Z,104633.88
2023-05-13T02:01:26.881Z,104619.47
2023-05-13T02:04:08.244Z,104603.22
2023-05-13T02:06:45.178Z,104587.00
2023-05-13T02:09:21.629Z,104553.63
2023-05-13T02:12:02.024Z,104541.91
2023-05-13T02:14:50.418Z,104504.06
2023-05-13T02:17:29.686Z,104470.75
2023-05-13T02:20:09.321Z,104404.09
2023-05-13T02:22:49.861Z,104368.06
2023-05-13T02:25:31.132Z,104330.16
2023-05-13T02:28:07.256Z,104312.09
2023-05-13T02:30:38.254Z,104297.69
2023-05-13T02:33:16.934Z,104285.06
2023-05-13T02:36:04.577Z,104270.59
2023-05-13T02:38:46.032Z,104249.88
2023-05-13T02:41:32.753Z,104204.88
2023-05-13T02:44:12.870Z,104183.25
2023-05-13T02:46:54.809Z,104150.78
2023-05-13T02:49:34.154Z,104111.09
2023-05-13T02:52:08.627Z,104074.19
2023-05-13T02:54:48.843Z,104029.13
2023-05-13T02:57:26.959Z,103987.72
2023-05-13T03:00:09.597Z,103962.47
2023-05-13T03:02:47.616Z,103904.88
2023-05-13T03:05:21.760Z,103852.56
2023-05-13T03:07:59.914Z,103809.31
2023-05-13T03:10:39.564Z,103754.44
2023-05-13T03:13:13.708Z,103695.06
2023-05-13T03:15:45.274Z,103663.47
2023-05-13T03:18:21.103Z,103630.16
2023-05-13T03:21:03.069Z,103599.59
2023-05-13T03:23:49.849Z,103566.28
2023-05-13T03:26:32.071Z,103533.94
2023-05-13T03:29:15.173Z,103515.94
2023-05-13T03:31:57.589Z,103494.25
2023-05-13T03:34:33.270Z,103468.19
2023-05-13T03:37:03.446Z,103450.25
2023-05-13T03:39:41.912Z,103441.25
2023-05-13T03:42:23.502Z,103415.16
2023-05-13T03:45:01.646Z,103394.59
2023-05-13T03:47:45.685Z,103376.53
2023-05-13T03:50:29.012Z,103361.16
2023-05-13T03:53:01.916Z,103336.00
2023-05-13T03:55:31.385Z,103318.88
2023-05-13T03:58:01.278Z,103306.28
2023-05-13T04:00:33.794Z,103284.63
2023-05-13T04:03:17.327Z,103272.91
2023-05-13T04:05:56.799Z,103251.34
2023-05-13T04:08:36.114Z,103237.78
2023-05-13T04:11:13.142Z,103225.22
2023-05-13T04:13:46.869Z,103210.81
2023-05-13T04:16:17.511Z,103208.06
2023-05-13T04:18:57.905Z,103183.75
2023-05-13T04:21:34.158Z,103163.22
2023-05-13T04:24:08.189Z,103151.59
2023-05-13T04:26:42.928Z,103139.84
2023-05-13T04:29:18.734Z,103144.31
2023-05-13T04:32:01.861Z,103142.53
2023-05-13T04:34:45.068Z,103157.78
2023-05-13T04:37:26.939Z,103145.19
2023-05-13T04:40:09.445Z,103134.38
2023-05-13T04:42:54.664Z,103143.22
2023-05-13T04:45:39.022Z,103133.31
2023-05-13T04:48:16.146Z,103132.56
2023-05-13T04:50:53.492Z,103153.16
2023-05-13T04:53:28.978Z,103157.69
2023-05-13T04:56:07.988Z,103184.50
2023-05-13T04:58:39.346Z,103202.47
2023-05-13T05:01:17.387Z,103210.44
2023-05-13T05:03:56.948Z,103175.25
2023-05-13T05:06:36.940Z,103159.91
2023-05-13T05:09:10.697Z,103164.25
2023-05-13T05:11:51.166Z,103146.09
2023-05-13T05:14:26.837Z,103119.03
2023-05-13T05:17:05.789Z,103101.78
2023-05-13T05:19:46.538Z,103083.66
2023-05-13T05:22:23.857Z,103057.22
2023-05-13T05:25:03.570Z,103007.63
2023-05-13T05:27:40.757Z,102990.38
2023-05-13T05:30:28.331Z,102966.75
2023-05-13T05:33:14.423Z,102926.00
2023-05-13T05:35:47.892Z,103025.94
2023-05-13T05:38:30.907Z,103009.50
2023-05-13T05:41:11.242Z,102962.50
2023-05-13T05:43:44.518Z,102911.72
2023-05-13T05:46:23.797Z,102837.56
2023-05-13T05:49:08.140Z,102781.31
2023-05-13T05:51:46.369Z,102733.19
2023-05-13T05:54:20.420Z,102677.91
2023-05-13T05:56:51.551Z,102634.41
2023-05-13T05:59:27.263Z,102574.72
2023-05-13T06:02:08.811Z,102534.72
2023-05-13T06:04:49.764Z,102492.97
2023-05-13T06:07:31.959Z,102473.91
2023-05-13T06:10:08.649Z,102452.78
2023-05-13T06:12:46.030Z,102436.34
2023-05-13T06:15:27.477Z,102436.25
2023-05-13T06:18:10.903Z,102411.78
2023-05-13T06:20:55.054Z,102371.53
2023-05-13T06:23:33.597Z,102304.06
2023-05-13T06:26:19.350Z,102223.94
2023-05-13T06:28:56.373Z,102134.44
2023-05-13T06:31:40.185Z,102056.00
2023-05-13T06:34:16.692Z,101981.56
2023-05-13T06:36:55.711Z,101918.88
2023-05-13T06:39:31.701Z,101831.97
2023-05-13T06:42:14.118Z,101764.88
2023-05-13T06:44:59.678Z,101677.41
2023-05-13T06:47:45.815Z,101597.69
2023-05-13T06:50:32.234Z,101507.69
2023-05-13T06:53:12.577Z,101413.31
2023-05-13T06:55:49.079Z,101357.03
2023-05-13T06:58:25.277Z,101330.53
2023-05-13T07:01:09.061Z,101339.84
2023-05-13T07:03:41.891Z,101339.09
2023-05-13T07:06:19.237Z,101353.75
2023-05-13T07:08:53.705Z,101337.28
2023-05-13T07:11:29.082Z,101316.84
2023-05-13T07:14:06.085Z,101327.53
2023-05-13T07:16:39.386Z,101320.78
2023-05-13T07:19:19.524Z,101322.31
2023-05-13T07:21:57.063Z,101340.91
2023-05-13T07:24:29.145Z,101369.50
2023-05-13T07:26:57.764Z,101368.50
2023-05-13T07:29:34.362Z,101392.13
2023-05-13T07:32:11.798Z,101408.88
2023-05-13T07:34:49.831Z,101428.44
2023-05-13T07:37:28.231Z,101444.28
2023-05-13T07:40:11.077Z,101439.09
2023-05-13T07:42:58.858Z,101441.81
2023-05-13T07:45:34.291Z,101432.31
2023-05-13T07:48:17.774Z,101457.13
2023-05-13T07:50:58.731Z,101470.50
2023-05-13T07:53:35.657Z,101474.28
2023-05-13T07:56:11.352Z,101472.56
2023-05-13T07:58:49.301Z,101462.56
2023-05-13T08:01:25.617Z,101485.88
2023-05-13T08:04:08.441Z,101503.59
2023-05-13T08:06:48.189Z,101487.28
2023-05-13T08:09:31.988Z,101493.03
2023-05-13T08:12:11.121Z,101478.41
2023-05-13T08:14:49.980Z,101525.75
2023-05-13T08:17:34.569Z,101565.03
2023-05-13T08:20:15.289Z,101579.16
2023-05-13T08:23:01.207Z,101593.72
2023-05-13T08:25:46.792Z,101576.81
2023-05-13T08:28:30.122Z,101612.66
2023-05-13T08:31:08.794Z,101601.09
2023-05-13T08:33:45.976Z,101620.25
2023-05-13T08:36:25.787Z,101609.78
2023-05-13T08:39:02.645Z,101621.22
2023-05-13T08:41:46.385Z,101615.69
2023-05-13T08:44:28.892Z,101618.16
2023-05-13T08:47:10.821Z,101636.34
2023-05-13T08:49:49.375Z,101672.28
2023-05-13T08:52:32.866Z,101674.25
2023-05-13T08:55:09.983Z,101712.44
2023-05-13T08:57:52.767Z,101731.72
2023-05-13T09:00:35.632Z,101733.41
2023-05-13T09:03:18.333Z,101736.00
2023-05-13T09:06:03.880Z,101736.00
2023-05-13T09:08:39.074Z,101749.63
2023-05-13T09:11:13.944Z,101753.19
2023-05-13T09:13:45.525Z,101760.28
2023-05-13T09:16:19.041Z,101779.88
2023-05-13T09:18:49.543Z,101800.00
2023-05-13T09:21:35.547Z,101812.78
2023-05-13T09:24:21.758Z,101913.25
2023-05-13T09:27:02.725Z,102016.84
2023-05-13T09:29:41.653Z,102070.00
2023-05-13T09:32:26.557Z,102053.56
2023-05-13T09:35:17.737Z,102023.59
2023-05-13T09:37:55.516Z,101944.44
2023-05-13T09:40:37.643Z,101932.38
2023-05-13T09:43:21.267Z,101928.75
2023-05-13T09:46:05.329Z,101909.09
2023-05-13T09:48:44.706Z,101905.72
2023-05-13T09:51:18.079Z,101896.66
2023-05-13T09:54:06.127Z,101897.25
2023-05-13T09:56:38.935Z,101887.69
2023-05-13T09:59:13.456Z,101873.88
2023-05-13T10:01:47.880Z,101878.47
2023-05-13T10:04:16.733Z,101874.09
2023-05-13T10:06:58.908Z,101855.06
2023-05-13T10:09:36.812Z,101860.06
2023-05-13T10:12:08.857Z,101864.53
2023-05-13T10:14:41.336Z,101850.06
2023-05-13T10:17:10.729Z,101857.50
2023-05-13T10:19:51.269Z,101850.78
2023-05-13T10:22:35.938Z,101846.78
2023-05-13T10:25:17.772Z,101839.59
2023-05-13T10:27:58.592Z,101834.50
2023-05-13T10:30:35.911Z,101819.00
2023-05-13T10:33:10.723Z,101828.66
2023-05-13T10:36:00.610Z,101802.28
2023-05-13T10:38:59.735Z,101802.69
2023-05-13T10:42:21.343Z,101809.53
2023-05-13T10:44:59.714Z,101808.94
2023-05-13T10:47:44.420Z,101813.97
2023-05-13T10:50:25.730Z,101789.69
2023-05-13T10:53:00.647Z,101804.09
2023-05-13T10:55:47.600Z,101800.19
2023-05-13T10:58:38.123Z,101811.84
2023-05-13T11:01:29.603Z,101783.00
2023-05-13T11:04:18.159Z,101807.78
2023-05-13T11:07:16.536Z,101803.16
2023-05-13T11:10:00.694Z,101802.50
2023-05-13T11:12:38.270Z,101788.66
2023-05-13T11:15:24.283Z,101792.22
2023-05-13T11:18:05.088Z,101778.19
2023-05-13T11:20:51.495Z,101770.16
2023-05-13T11:23:30.381Z,101780.56
2023-05-13T11:26:16.897Z,101757.56
2023-05-13T11:29:06.480Z,101779.03
2023-05-13T11:31:48.716Z,101765.06
2023-05-13T11:34:32.100Z,101751.84
2023-05-13T11:37:19.784Z,101745.06
2023-05-13T11:39:58.811Z,101727.31
2023-05-13T11:42:40.698Z,101725.06
2023-05-13T11:45:25.422Z,101726.19
2023-05-13T11:48:19.118Z,101730.97
2023-05-13T11:50:58.616Z,101730.13
2023-05-13T11:53:26.951Z,101725.97
2023-05-13T11:56:12.879Z,101721.50
2023-05-13T11:58:54.304Z,101718.88
2023-05-13T12:01:32.704Z,101721.31
2023-05-13T12:04:15.883Z,101720.47
2023-05-13T12:06:56.673Z,101722.94
2023-05-13T12:09:35.482Z,101735.59
2023-05-13T12:12:16.392Z,101727.28
2023-05-13T12:14:56.886Z,101708.03
2023-05-13T12:17:31.631Z,101705.09
2023-05-13T12:20:15.502Z,101692.41
2023-05-13T12:22:54.770Z,101690.66
2023-05-13T12:25:47.697Z,101686.06
2023-05-13T12:28:26.033Z,101671.91
2023-05-13T12:31:06.385Z,101710.03
2023-05-13T12:33:46.869Z,101711.47
2023-05-13T12:36:25.640Z,101735.94
2023-05-13T12:39:21.405Z,101743.00
2023-05-13T12:42:02.813Z,101740.81
2023-05-13T12:44:46.181Z,101731.38
2023-05-13T12:47:23.108Z,101743.69
2023-05-13T12:49:59.388Z,101721.25
2023-05-13T12:52:33.263Z,101727.63
2023-05-13T12:55:03.188Z,101736.25
2023-05-13T12:57:43.319Z,101744.75
2023-05-13T13:00:25.261Z,101735.44
2023-05-13T13:03:03.526Z,101740.66
2023-05-13T13:05:41.489Z,101730.56
2023-05-13T13:08:22.781Z,101745.00
2023-05-13T13:11:01.246Z,101719.84
2023-05-13T13:13:42.621Z,101716.66
2023-05-13T13:16:16.211Z,101699.78
2023-05-13T13:18:47.549Z,101705.53
2023-05-13T13:21:23.967Z,101731.44
2023-05-13T13:24:08.906Z,101728.69
2023-05-13T13:26:49.878Z,101725.34
2023-05-13T13:29:32.359Z,101701.63
2023-05-13T13:32:07.305Z,101700.88
2023-05-13T13:34:48.108Z,101711.47
2023-05-13T13:37:25.816Z,101698.16
2023-05-13T13:40:07.541Z,101681.34
2023-05-13T13:42:46.502Z,101679.56
2023-05-13T13:45:19.024Z,101676.22
2023-05-13T13:47:58.518Z,101690.63
2023-05-13T13:50:34.499Z,101660.56
2023-05-13T13:53:11.002Z,101675.91
2023-05-13T13:55:51.068Z,101687.47
2023-05-13T13:58:29.584Z,101700.13
2023-05-13T14:01:12.419Z,101685.91
2023-05-13T14:03:51.438Z,101681.31
2023-05-13T14:06:21.815Z,101667.53
2023-05-13T14:08:57.587Z,101659.34
2023-05-13T14:11:36.420Z,101653.97
2023-05-13T14:14:16.349Z,101646.13
2023-05-13T14:16:50.195Z,101646.44
2023-05-13T14:19:29.397Z,101670.75
2023-05-13T14:22:13.048Z,101684.16
2023-05-13T14:24:49.125Z,101712.75
2023-05-13T14:27:19.224Z,101748.94
2023-05-13T14:29:52.545Z,101779.09
2023-05-13T14:32:20.765Z,101795.31
2023-05-13T14:34:50.302Z,101796.75
2023-05-13T14:37:25.935Z,101787.94
2023-05-13T14:40:02.783Z,101796.13
2023-05-13T14:42:49.306Z,101786.44
2023-05-13T14:45:33.292Z,101790.16
2023-05-13T14:48:17.190Z,101785.06
2023-05-13T14:50:51.021Z,101783.16
2023-05-13T14:53:22.824Z,101779.47
2023-05-13T14:55:57.325Z,101783.22
2023-05-13T14:58:37.534Z,101766.53
2023-05-13T15:01:10.813Z,101762.16
2023-05-13T15:03:51.650Z,101771.19
2023-05-13T15:06:32.852Z,101743.63
2023-05-13T15:09:13.835Z,101740.31
2023-05-13T15:11:55.982Z,101754.22
2023-05-13T15:14:37.501Z,101732.66
2023-05-13T15:17:21.138Z,101759.25
2023-05-13T15:19:54.687Z,101743.44
2023-05-13T15:22:24.543Z,101760.56
2023-05-13T15:25:06.961Z,101753.97
2023-05-13T15:27:42.292Z,101744.16
2023-05-13T15:30:24.333Z,101754.09
2023-05-13T15:32:58.529Z,101777.69
2023-05-13T15:35:37.257Z,101791.19
2023-05-13T15:38:18.044Z,101796.66
2023-05-13T15:40:57.316Z,101802.41
2023-05-13T15:43:41.252Z,101793.69
2023-05-13T15:46:23.930Z,101810.06
2023-05-13T15:49:02.218Z,101802.22
2023-05-13T15:51:43.106Z,101806.34
2023-05-13T15:54:21.339Z,101773.28
2023-05-13T15:57:01.214Z,101793.38
2023-05-13T15:59:41.501Z,101789.81
2023-05-13T16:02:23.467Z,101760.97
2023-05-13T16:05:03.268Z,101772.78
2023-05-13T16:07:42.369Z,101791.53
2023-05-13T16:10:17.712Z,101790.66
2023-05-13T16:12:58.253Z,101769.56
2023-05-13T16:15:31.835Z,101755.41
2023-05-13T16:18:12.950Z,101785.25
2023-05-13T16:20:56.816Z,101777.16
2023-05-13T16:23:33.708Z,101760.91
2023-05-13T16:26:09.931Z,101774.63
2023-05-13T16:28:51.078Z,101756.75
2023-05-13T16:31:31.825Z,101771.56
2023-05-13T16:34:15.377Z,101766.84
2023-05-13T16:36:55.872Z,101765.00
2023-05-13T16:39:39.919Z,101761.75
2023-05-13T16:42:25.653Z,101773.81
2023-05-13T16:44:58.941Z,101776.25
2023-05-13T16:47:29.815Z,101803.00
2023-05-13T16:50:10.652Z,101812.94
2023-05-13T16:52:49.962Z,101807.84
2023-05-13T16:55:31.129Z,101816.53
2023-05-13T16:58:14.620Z,101822.22
2023-05-13T17:00:50.450Z,101824.19
2023-05-13T17:03:26.266Z,101805.31
2023-05-13T17:06:08.473Z,101813.50
2023-05-13T17:08:49.447Z,101821.22
2023-05-13T17:11:24.278Z,101827.03
2023-05-13T17:13:55.236Z,101813.13
2023-05-13T17:16:31.268Z,101815.75
2023-05-13T17:19:08.065Z,101811.00
2023-05-13T17:21:44.288Z,101802.94
2023-05-13T17:24:19.127Z,101793.25
2023-05-13T17:26:57.773Z,101778.97
2023-05-13T17:29:39.526Z,101774.13
2023-05-13T17:32:18.578Z,101777.09
2023-05-13T17:34:57.457Z,101794.72
2023-05-13T17:37:41.782Z,101802.06
2023-05-13T17:40:15.695Z,101793.31
2023-05-13T17:43:02.967Z,101793.19
2023-05-13T17:45:49.484Z,101787.84
2023-05-13T17:48:29.228Z,101788.22
2023-05-13T17:51:07.663Z,101767.69
2023-05-13T17:53:48.437Z,101757.03
2023-05-13T17:56:29.250Z,101762.63
2023-05-13T17:59:08.137Z,101767.09
2023-05-13T18:01:49.749Z,101780.59
2023-05-13T18:04:32.626Z,101763.47
2023-05-13T18:07:12.266Z,101763.16
2023-05-13T18:09:51.031Z,101770.59
2023-05-13T18:12:30.960Z,101760.91
2023-05-13T18:15:12.067Z,101764.25
2023-05-13T18:17:56.648Z,101767.53
2023-05-13T18:20:35.776Z,101758.59
2023-05-13T18:23:13.795Z,101753.47
2023-05-13T18:25:56.305Z,101764.88
2023-05-13T18:28:37.469Z,101762.53
2023-05-13T18:31:15.799Z,101757.50
2023-05-13T18:33:53.711Z,101757.63
2023-05-13T18:36:32.938Z,101735.38
2023-05-13T18:39:15.664Z,101723.72
2023-05-13T18:41:50.546Z,101715.25
2023-05-13T18:44:21.523Z,101714.47
2023-05-13T18:47:02.250Z,101707.88
2023-05-13T18:49:42.249Z,101701.25
2023-05-13T18:52:19.479Z,101697.66
2023-05-13T18:55:05.856Z,101684.38
2023-05-13T18:57:51.951Z,101668.66
2023-05-13T19:00:29.477Z,101663.25
2023-05-13T19:03:07.755Z,101650.19
2023-05-13T19:05:42.025Z,101636.91
2023-05-13T19:08:10.186Z,101617.00
2023-05-13T19:10:40.696Z,101594.13
2023-05-13T19:13:22.262Z,101578.47
2023-05-13T19:16:07.585Z,101567.50
2023-05-13T19:18:41.897Z,101552.69
2023-05-13T19:21:26.106Z,101551.50
2023-05-13T19:24:06.384Z,101549.72
2023-05-13T19:26:47.076Z,101549.97
2023-05-13T19:29:32.333Z,101535.03
2023-05-13T19:32:11.955Z,101533.09
2023-05-13T19:34:43.360Z,101533.28
2023-05-13T19:37:29.037Z,101535.34
2023-05-13T19:40:02.561Z,101541.09
2023-05-13T19:42:44.169Z,101550.66
2023-05-13T19:45:21.742Z,101539.34
2023-05-13T19:48:01.438Z,101548.47
2023-05-13T19:50:40.065Z,101556.47
2023-05-13T19:53:16.377Z,101562.34
2023-05-13T19:55:59.116Z,101571.53
2023-05-13T19:58:33.565Z,101584.03
2023-05-13T20:01:14.928Z,101604.47
2023-05-13T20:03:55.364Z,101613.34
2023-05-13T20:06:36.572Z,101655.38
2023-05-13T20:09:11.969Z,101686.06
2023-05-13T20:11:43.236Z,101709.22
2023-05-13T20:14:27.694Z,101726.47
2023-05-13T20:17:08.429Z,101741.88
2023-05-13T20:19:49.210Z,101775.75
2023-05-13T20:22:32.987Z,101797.94
2023-05-13T20:25:09.174Z,101821.69
2023-05-13T20:27:40.009Z,101844.56
2023-05-13T20:30:16.512Z,101863.25
2023-05-13T20:32:55.630Z,101876.63
2023-05-13T20:35:36.840Z,101883.00
2023-05-13T20:38:21.982Z,101893.06
2023-05-13T20:41:05.357Z,101897.19
2023-05-13T20:43:45.029Z,101904.88
2023-05-13T20:46:24.476Z,101915.66
2023-05-13T20:49:04.317Z,101919.41
2023-05-13T20:51:46.603Z,101915.91
2023-05-13T20:54:29.076Z,101914.09
2023-05-13T20:57:07.592Z,101898.91
2023-05-13T20:59:45.377Z,101873.91
2023-05-13T21:02:29.496Z,101864.25
2023-05-13T21:05:00.797Z,101834.25
2023-05-13T21:07:33.019Z,101807.59
2023-05-13T21:10:08.501Z,101794.97
2023-05-13T21:12:48.022Z,101785.69
2023-05-13T21:15:25.704Z,101785.88
2023-05-13T21:18:03.430Z,101781.00
2023-05-13T21:20:47.377Z,101797.25
2023-05-13T21:23:29.141Z,101790.44
2023-05-13T21:26:06.263Z,101792.19
2023-05-13T21:28:44.270Z,101783.44
2023-05-13T21:31:25.131Z,101792.19
2023-05-13T21:34:12.862Z,101790.63
2023-05-13T21:36:57.468Z,101788.50
2023-05-13T21:39:34.116Z,101779.59
2023-05-13T21:42:17.291Z,101769.00
2023-05-13T21:44:53.323Z,101753.63
2023-05-13T21:47:26.250Z,101757.38
2023-05-13T21:50:03.649Z,101745.31
2023-05-13T21:52:38.389Z,101748.97
2023-05-13T21:55:26.547Z,101753.53
2023-05-13T21:58:06.609Z,101746.78
2023-05-13T22:00:41.897Z,101744.28
2023-05-13T22:03:29.660Z,101749.03
2023-05-13T22:06:17.524Z,101751.63
2023-05-13T22:09:02.120Z,101757.03
2023-05-13T22:11:49.869Z,101753.34
2023-05-13T22:14:37.544Z,101760.34
2023-05-13T22:17:25.364Z,101757.72
2023-05-13T22:20:11.592Z,101759.41
2023-05-13T22:22:58.420Z,101755.66
2023-05-13T22:25:47.546Z,101768.41
2023-05-13T22:28:35.282Z,101762.22
2023-05-13T22:31:23.087Z,101757.56
2023-05-13T22:34:10.871Z,101766.84
2023-05-13T22:36:58.609Z,101767.88
2023-05-13T22:39:32.097Z,101771.47
2023-05-13T22:42:07.918Z,101778.53
2023-05-13T22:44:55.901Z,101786.66
2023-05-13T22:47:43.846Z,101773.13
2023-05-13T22:50:31.583Z,101788.34
2023-05-13T22:53:10.274Z,101798.13
2023-05-13T22:55:58.092Z,101803.47
2023-05-13T22:58:43.611Z,101806.00
2023-05-13T23:01:27.873Z,101805.13
2023-05-13T23:04:07.693Z,101805.31
2023-05-13T23:06:47.698Z,101805.31
2023-05-13T23:09:20.764Z,101818.00
2023-05-13T23:11:56.734Z,101812.47
2023-05-13T23:14:35.600Z,101817.81
2023-05-13T23:17:14.464Z,101820.72
2023-05-13T23:19:57.191Z,101818.41
2023-05-13T23:22:38.374Z,101823.22
2023-05-13T23:25:15.181Z,101813.00
2023-05-13T23:27:53.612Z,101798.25
2023-05-13T23:30:33.224Z,101788.44
2023-05-13T23:33:11.241Z,101786.50
2023-05-13T23:35:54.111Z,101784.84
2023-05-13T23:38:29.603Z,101772.16
2023-05-13T23:41:11.220Z,101775.81
2023-05-13T23:43:46.073Z,101769.47
2023-05-13T23:46:22.335Z,101772.25
2023-05-13T23:49:01.457Z,101768.91
2023-05-13T23:51:41.969Z,101757.16
2023-05-13T23:54:23.766Z,101742.50
2023-05-13T23:56:59.319Z,101742.56
2023-05-13T23:59:46.843Z,101733.56
